Kezdőlap
METAR-TAF:

METAR-TAF

Repülőterek :

Akeno, Japán

földrajzi szélesség: 34-32N, földrajzi hosszúság: 136-41E, magasság: 6 m

Jelenlegi meteorológiai megfigyelések

A jelentés 10 órával és 8 perccel ezelõtt készült, 06:12 UTC
Déli szél 24 kt széllökések: 36 kt
Hőmérséklet 23°C
Páratartalom 89%
Légköri nyomás 995 hPa
Látótávolság: 1500 m
Kevés felhő 800 lábon
Szórványos felhőzet 1500 lábon
Szakadozott felhőzet 2500 lábon
erőteljes záporok, Párásság

METAR: RJOE 280612Z 18024G36KT 1500 +SHRA BR FEW008 SCT015 BKN025 23/21 Q0995 RMK 1ST008 3CU015 5CU025 A2940

Idő: 01:20 (16:20 UTC)


TAF: hiányzik

Meteorológiai megfigyelések és előrejelzések több, mint 4000 repülőtéren (METAR és TAF jelentéseket).

A térképen piros és sárga pontok jelzik az elérhető meteorológiai állomásokat.

Mozgassa az egeret a pont fölött, hogy megjelenjen az állomás neve.

Azután kattintson az időjárási megfigyelések és előrejelzések megtekintéséhez.

A térkép megváltoztatása: kattintson a fekete keresztel jelölt zöld gombra ráközelítéshez, a vonallal jelölt zöld gombra távolításhoz, vagy a zöld nyilakra a szomszédos térképek eléréséhez.


METAR-TAF: